Time;durP1;ratioP1;P1;durP2;ratioP2;P2;SDS_P1;SDS_P2;PMS_P1;PMS_P2;Temp;Humidity;BMP_temperature;BMP_pressure;BME280_temperature;BME280_humidity;BME280_pressure;Samples;Min_cycle;Max_cycle;Signal;HPM_P1;HPM_P2
2022/10/08 00:01:14;;;;;;;;;4.00;3.00;;;;;16.82;49.62;101622.78;5059578;28;46217;-62
2022/10/08 00:03:43;;;;;;;;;1.67;1.00;;;;;16.79;49.24;101623.69;5043383;28;45601;-62
2022/10/08 00:06:15;;;;;;;;;2.00;2.00;;;;;16.75;49.39;101622.81;5054761;28;45502;-62
2022/10/08 00:08:45;;;;;;;;;2.00;2.00;;;;;16.80;49.41;101622.81;5055192;28;45527;-61
2022/10/08 00:11:15;;;;;;;;;2.33;2.33;;;;;16.82;49.54;101626.28;5040709;28;46866;-62
2022/10/08 00:13:43;;;;;;;;;3.00;2.00;;;;;16.83;49.28;101629.84;5058082;28;45368;-63
2022/10/08 00:16:18;;;;;;;;;3.00;3.00;;;;;16.81;48.93;101624.53;5054892;28;45301;-62
2022/10/08 00:18:45;;;;;;;;;6.67;3.00;;;;;16.75;49.69;101624.56;5055776;28;45402;-62
2022/10/08 00:21:16;;;;;;;;;3.67;2.67;;;;;16.77;49.73;101627.19;5054902;28;46524;-63
2022/10/08 00:23:43;;;;;;;;;3.00;3.00;;;;;16.70;49.50;101622.00;5055229;28;45354;-62
2022/10/08 00:26:10;;;;;;;;;2.00;2.00;;;;;16.71;49.80;101622.84;5058067;28;45411;-61
2022/10/08 00:28:37;;;;;;;;;3.00;2.00;;;;;16.68;49.67;101621.13;5059325;28;45425;-65
2022/10/08 00:31:10;;;;;;;;;3.33;3.00;;;;;16.75;49.44;101638.69;5057462;28;46847;-65
2022/10/08 00:33:36;;;;;;;;;2.33;2.33;;;;;16.73;49.77;101634.31;5055779;28;45360;-64
2022/10/08 00:36:04;;;;;;;;;7.33;3.00;;;;;16.60;50.08;101632.66;5054991;28;45530;-62
2022/10/08 00:38:29;;;;;;;;;3.00;2.33;;;;;16.47;50.68;101616.03;5058210;28;45559;-63
2022/10/08 00:40:55;;;;;;;;;2.33;2.33;;;;;16.47;50.23;101626.59;5059004;28;45597;-62
2022/10/08 00:43:45;;;;;;;;;5.33;3.00;;;;;16.49;50.47;101630.97;5041064;28;45478;-61
2022/10/08 00:46:24;;;;;;;;;2.67;2.00;;;;;16.39;50.83;101641.63;5055755;28;45367;-63
2022/10/08 00:49:11;;;;;;;;;7.33;2.00;;;;;16.32;50.68;101638.16;5055012;28;45540;-62
2022/10/08 00:51:50;;;;;;;;;5.00;3.67;;;;;16.32;51.03;101630.22;5052767;28;45781;-61
2022/10/08 00:54:19;;;;;;;;;5.00;3.00;;;;;16.37;50.68;101646.91;5053035;28;45772;-61
2022/10/08 00:56:48;;;;;;;;;3.00;3.00;;;;;16.37;51.13;101646.03;5054316;28;45430;-62
2022/10/08 00:59:13;;;;;;;;;2.33;2.00;;;;;16.34;51.01;101646.94;5057603;28;45414;-62
2022/10/08 01:01:42;;;;;;;;;2.00;2.00;;;;;16.31;51.10;101642.56;5035733;28;46551;-63
2022/10/08 01:04:10;;;;;;;;;5.33;2.67;;;;;16.32;51.02;101640.78;5035216;28;45426;-64
2022/10/08 01:06:59;;;;;;;;;4.33;3.00;;;;;16.36;50.77;101645.16;5054082;28;45366;-62
2022/10/08 01:09:31;;;;;;;;;2.00;2.00;;;;;16.40;51.12;101644.28;5054197;28;45436;-65
2022/10/08 01:12:11;;;;;;;;;2.00;2.00;;;;;16.39;51.51;101638.97;5052679;28;46331;-63
2022/10/08 01:14:56;;;;;;;;;2.67;2.67;;;;;16.32;51.14;101640.78;5052620;28;45421;-63
2022/10/08 01:17:21;;;;;;;;;2.67;2.67;;;;;16.34;51.35;101644.31;5053270;28;45405;-63
2022/10/08 01:20:12;;;;;;;;;3.00;2.00;;;;;16.32;51.76;101633.75;5057475;28;45494;-63
2022/10/08 01:23:04;;;;;;;;;2.33;2.00;;;;;16.28;51.57;101629.38;5058203;28;46616;-64
2022/10/08 01:25:36;;;;;;;;;3.00;3.00;;;;;16.31;51.39;101628.47;5058284;28;45488;-62
2022/10/08 01:28:11;;;;;;;;;5.00;1.67;;;;;16.33;51.53;101643.44;5054838;28;45414;-61
2022/10/08 01:30:40;;;;;;;;;2.00;2.00;;;;;16.33;51.65;101634.63;5055037;28;45541;-62
2022/10/08 01:33:13;;;;;;;;;2.00;2.00;;;;;16.27;52.20;101622.31;5056532;28;46223;-62
2022/10/08 01:35:45;;;;;;;;;2.00;2.00;;;;;16.14;52.38;101625.09;5053520;28;45386;-63
2022/10/08 01:38:16;;;;;;;;;3.00;3.00;;;;;16.14;52.61;101630.38;5053465;28;45336;-64
2022/10/08 01:40:44;;;;;;;;;1.00;1.00;;;;;16.09;52.56;101631.28;5035475;28;45419;-61
2022/10/08 01:43:13;;;;;;;;;2.00;1.67;;;;;15.95;52.75;101609.34;5054511;28;46036;-62
2022/10/08 01:45:49;;;;;;;;;2.67;2.00;;;;;16.07;52.59;101633.03;5057629;28;45453;-62
2022/10/08 01:48:21;;;;;;;;;2.00;2.00;;;;;15.92;53.45;101630.47;5058031;28;45300;-62
2022/10/08 01:51:12;;;;;;;;;4.00;2.00;;;;;15.93;53.45;101639.31;5044074;28;45469;-62
2022/10/08 01:53:44;;;;;;;;;1.33;1.33;;;;;15.95;53.13;101629.59;5053645;28;45442;-62
2022/10/08 01:56:16;;;;;;;;;2.00;2.00;;;;;15.85;53.88;101623.47;5053565;28;45367;-62
2022/10/08 01:58:54;;;;;;;;;4.00;2.00;;;;;15.89;54.07;101634.00;5052000;28;45677;-62
2022/10/08 02:01:26;;;;;;;;;3.00;1.67;;;;;15.73;53.87;101610.34;5053737;28;45842;-63
2022/10/08 02:06:41;;;;;;;;;2.00;2.00;;;;;15.72;54.74;101620.03;5052913;28;45414;-62
2022/10/08 02:09:08;;;;;;;;;2.33;2.33;;;;;15.53;55.26;101608.66;5053497;28;45457;-63
2022/10/08 02:11:34;;;;;;;;;1.67;1.33;;;;;15.56;54.65;101613.91;5035104;28;45620;-62
2022/10/08 02:14:01;;;;;;;;;3.33;2.33;;;;;15.67;55.07;101619.16;5057178;28;45497;-61
2022/10/08 02:16:31;;;;;;;;;1.67;1.67;;;;;15.65;54.83;101619.16;5039326;28;45562;-61
2022/10/08 02:19:26;;;;;;;;;2.33;1.00;;;;;15.69;54.22;101615.63;5057410;28;45395;-63
2022/10/08 02:21:55;;;;;;;;;2.00;1.00;;;;;15.80;54.91;101633.19;5057301;28;45391;-62
2022/10/08 02:24:31;;;;;;;;;2.00;2.00;;;;;15.79;54.71;101624.41;5056672;28;45570;-62
2022/10/08 02:27:03;;;;;;;;;1.00;1.00;;;;;15.76;54.60;101627.06;5052859;28;45746;-62
2022/10/08 02:29:35;;;;;;;;;1.00;1.00;;;;;15.77;55.46;101628.81;5053383;28;45302;-62
2022/10/08 02:32:04;;;;;;;;;1.00;1.00;;;;;15.80;54.79;101622.63;5053103;28;45371;-60
2022/10/08 02:34:52;;;;;;;;;3.67;2.00;;;;;15.82;55.01;101621.72;5053107;28;46501;-62
2022/10/08 02:37:28;;;;;;;;;1.67;1.00;;;;;15.90;55.24;101627.88;5035100;28;45807;-61
2022/10/08 02:40:06;;;;;;;;;2.00;1.00;;;;;15.78;54.98;101616.47;5053701;28;45336;-64
2022/10/08 02:42:34;;;;;;;;;2.00;1.00;;;;;15.71;55.07;101618.28;5052852;28;45610;-62
2022/10/08 02:45:09;;;;;;;;;3.00;2.00;;;;;15.69;55.67;101620.03;5031891;28;45413;-60
2022/10/08 02:47:37;;;;;;;;;2.67;1.67;;;;;15.53;55.88;101616.56;5022107;28;45435;-61
2022/10/08 02:50:10;;;;;;;;;4.00;2.00;;;;;15.61;55.91;101622.72;5021047;28;45585;-62
2022/10/08 02:52:42;;;;;;;;;2.33;1.33;;;;;15.56;56.00;101608.63;5032541;28;45534;-62
2022/10/08 02:55:35;;;;;;;;;1.00;1.00;;;;;15.53;55.65;101613.94;5048433;28;46519;-62
2022/10/08 02:58:05;;;;;;;;;0.67;0.67;;;;;15.57;55.92;101602.47;5032134;28;46270;-62
2022/10/08 03:00:44;;;;;;;;;4.00;1.00;;;;;15.61;55.79;101617.44;5032194;28;46084;-62
2022/10/08 03:03:17;;;;;;;;;1.00;1.00;;;;;15.59;56.23;101627.13;5042636;28;45469;-63
2022/10/08 03:05:44;;;;;;;;;1.00;1.00;;;;;15.60;56.02;101618.28;5052440;28;45723;-62
2022/10/08 03:08:13;;;;;;;;;1.00;1.00;;;;;15.69;56.28;101618.25;5047482;28;45504;-63
2022/10/08 03:10:44;;;;;;;;;1.00;1.00;;;;;15.76;56.58;101623.56;5046768;28;45398;-62
2022/10/08 03:13:11;;;;;;;;;1.00;1.00;;;;;15.67;56.62;101627.06;5046863;28;45526;-61
2022/10/08 03:15:40;;;;;;;;;1.00;1.00;;;;;15.68;56.07;101616.50;5023199;28;46895;-63
2022/10/08 03:18:09;;;;;;;;;2.00;0.67;;;;;15.72;56.49;101620.03;5033537;28;45419;-62
2022/10/08 03:20:49;;;;;;;;;0.67;0.67;;;;;15.64;57.35;101622.69;5044486;28;45418;-62
2022/10/08 03:23:17;;;;;;;;;1.00;1.00;;;;;15.56;57.20;101629.75;5052835;28;45663;-62
2022/10/08 03:25:43;;;;;;;;;0.67;0.00;;;;;15.60;57.43;101631.50;5046800;28;45730;-62
2022/10/08 03:28:09;;;;;;;;;1.00;1.00;;;;;15.63;56.98;101630.59;5046823;28;45575;-64
2022/10/08 03:30:34;;;;;;;;;0.33;0.00;;;;;15.65;57.34;101629.72;5043770;28;45420;-62
2022/10/08 03:33:01;;;;;;;;;2.00;0.00;;;;;15.69;57.39;101639.38;5045893;28;45435;-62
2022/10/08 03:35:26;;;;;;;;;1.00;0.33;;;;;15.70;57.15;101640.28;5045945;28;46203;-59
2022/10/08 03:37:53;;;;;;;;;2.00;1.00;;;;;15.66;57.12;101626.19;5043659;28;45769;-62
2022/10/08 03:40:20;;;;;;;;;0.67;0.67;;;;;15.74;57.53;101643.81;5057291;28;45351;-61
2022/10/08 03:42:45;;;;;;;;;3.00;1.00;;;;;15.76;57.11;101637.63;5060100;28;45344;-61
2022/10/08 03:45:11;;;;;;;;;2.00;1.00;;;;;15.72;57.52;101648.22;5059852;28;46244;-62
2022/10/08 03:47:36;;;;;;;;;0.00;0.00;;;;;15.74;57.25;101662.28;5049440;28;45697;-62
2022/10/08 03:50:02;;;;;;;;;0.00;0.00;;;;;15.71;57.32;101651.72;5059869;28;45485;-61
2022/10/08 03:52:29;;;;;;;;;2.00;1.00;;;;;15.71;57.45;101657.91;5052269;28;45868;-61
2022/10/08 03:54:55;;;;;;;;;1.00;1.00;;;;;15.67;57.87;101653.47;5057467;28;46150;-62
2022/10/08 03:57:20;;;;;;;;;0.33;0.33;;;;;15.60;58.24;101649.97;5055608;28;45643;-61
2022/10/08 03:59:46;;;;;;;;;1.00;0.33;;;;;15.68;57.66;101661.41;5055699;28;45520;-61
2022/10/08 04:02:11;;;;;;;;;1.00;1.00;;;;;15.54;57.78;101651.75;5055531;28;45390;-61
2022/10/08 04:04:37;;;;;;;;;1.33;1.33;;;;;15.64;58.42;101667.56;5059014;28;45443;-61
2022/10/08 04:07:03;;;;;;;;;1.33;0.00;;;;;15.58;58.37;101670.22;5055440;28;45470;-60
2022/10/08 04:09:28;;;;;;;;;4.00;1.00;;;;;15.48;58.53;101668.53;5057120;28;45598;-61
2022/10/08 04:11:54;;;;;;;;;0.33;0.00;;;;;15.48;58.69;101663.25;5060127;28;45362;-62
2022/10/08 04:14:19;;;;;;;;;1.00;1.00;;;;;15.60;58.74;101675.53;5038603;28;46948;-62
2022/10/08 04:16:46;;;;;;;;;3.00;1.00;;;;;15.59;58.06;101668.47;5054708;28;45625;-61
2022/10/08 04:19:11;;;;;;;;;3.00;1.00;;;;;15.62;58.36;101671.97;5059560;28;45533;-63
2022/10/08 04:21:37;;;;;;;;;2.33;0.67;;;;;15.62;58.33;101673.75;5058723;28;45494;-62
2022/10/08 04:24:03;;;;;;;;;2.00;1.67;;;;;15.63;58.13;101686.94;5054612;28;46197;-62
2022/10/08 04:26:29;;;;;;;;;1.00;1.00;;;;;15.66;58.06;101697.50;5056892;28;45497;-62
2022/10/08 04:28:55;;;;;;;;;2.67;0.67;;;;;15.64;58.81;101683.41;5059404;28;45506;-64
2022/10/08 04:31:22;;;;;;;;;0.00;0.00;;;;;15.61;58.76;101674.63;5055511;28;45490;-62
2022/10/08 04:33:48;;;;;;;;;1.00;1.00;;;;;15.67;58.64;101682.53;5037087;28;46810;-61
2022/10/08 04:36:17;;;;;;;;;1.00;1.00;;;;;15.68;59.04;101689.56;5055514;28;45477;-62
2022/10/08 04:38:43;;;;;;;;;3.00;1.33;;;;;15.63;59.28;101681.66;5057747;28;45371;-61
2022/10/08 04:41:14;;;;;;;;;4.33;1.00;;;;;15.68;59.27;101698.38;5056877;28;45429;-61
2022/10/08 04:43:42;;;;;;;;;1.00;1.00;;;;;15.71;59.64;101699.25;5054475;28;45477;-64
2022/10/08 04:46:09;;;;;;;;;2.00;0.67;;;;;15.68;59.41;101693.09;5057467;28;45480;-62
2022/10/08 04:48:36;;;;;;;;;1.00;1.00;;;;;15.71;59.35;101710.72;5054819;28;45462;-62
2022/10/08 04:51:04;;;;;;;;;1.00;1.00;;;;;15.77;59.33;101712.44;5054850;28;45672;-63
2022/10/08 04:53:29;;;;;;;;;2.33;1.00;;;;;15.77;59.64;101717.75;5054408;28;45836;-61
2022/10/08 04:55:56;;;;;;;;;2.00;1.00;;;;;15.81;59.50;101716.84;5039289;28;45289;-62
2022/10/08 04:58:24;;;;;;;;;2.00;2.00;;;;;15.80;59.39;101718.63;5058956;28;45512;-61
2022/10/08 05:00:50;;;;;;;;;4.00;2.00;;;;;15.82;60.66;101716.81;5058976;28;45408;-62
2022/10/08 05:03:15;;;;;;;;;2.33;2.00;;;;;15.77;60.30;101708.03;5058768;28;46146;-62
2022/10/08 05:05:42;;;;;;;;;1.33;1.00;;;;;15.76;60.26;101719.50;5058719;28;45535;-62
2022/10/08 05:08:08;;;;;;;;;1.00;1.00;;;;;15.69;60.41;101708.03;5058712;28;45627;-62
2022/10/08 05:10:35;;;;;;;;;3.33;3.00;;;;;15.79;60.12;101715.97;5055227;28;45452;-63
2022/10/08 05:13:04;;;;;;;;;3.33;3.00;;;;;15.79;60.30;101723.91;5053724;28;46441;-63
2022/10/08 05:15:30;;;;;;;;;4.67;4.67;;;;;15.71;60.13;101707.19;5054070;28;45292;-61
2022/10/08 05:17:56;;;;;;;;;3.00;2.67;;;;;15.79;60.33;101721.25;5054079;28;45365;-62
2022/10/08 05:20:21;;;;;;;;;2.00;2.00;;;;;15.78;60.42;101732.69;5054710;28;45739;-62
2022/10/08 05:22:47;;;;;;;;;3.00;1.67;;;;;15.77;60.35;101730.94;5052507;28;46735;-61
2022/10/08 05:25:13;;;;;;;;;1.67;1.67;;;;;15.75;60.41;101738.00;5054130;28;45345;-62
2022/10/08 05:27:38;;;;;;;;;1.00;1.00;;;;;15.69;60.30;101725.66;5035519;28;45596;-61
2022/10/08 05:30:05;;;;;;;;;1.33;1.00;;;;;15.76;60.41;101735.34;5073958;28;45612;-62
2022/10/08 05:32:30;;;;;;;;;1.00;1.00;;;;;15.78;60.59;101744.16;5056775;28;45541;-61
2022/10/08 05:34:56;;;;;;;;;1.00;1.00;;;;;15.69;60.91;101737.09;5054300;28;45419;-62
2022/10/08 05:37:21;;;;;;;;;2.67;1.00;;;;;15.72;60.65;101736.25;5054557;28;45798;-64
2022/10/08 05:39:47;;;;;;;;;1.00;1.00;;;;;15.77;60.30;101747.66;5054151;28;45533;-62
2022/10/08 05:42:12;;;;;;;;;3.67;1.00;;;;;15.71;60.58;101737.13;5053675;28;46122;-63
2022/10/08 05:44:39;;;;;;;;;1.33;1.33;;;;;15.71;60.58;101739.78;5053301;28;45484;-62
2022/10/08 05:47:04;;;;;;;;;1.00;1.00;;;;;15.75;60.92;101746.78;5056853;28;45501;-62
2022/10/08 05:49:30;;;;;;;;;2.00;2.00;;;;;15.72;60.75;101745.94;5042922;28;45534;-62
2022/10/08 05:51:56;;;;;;;;;1.00;1.00;;;;;15.76;60.63;101755.63;5050813;28;45446;-63
2022/10/08 05:54:21;;;;;;;;;1.00;1.00;;;;;15.74;60.60;101754.75;5053662;28;45380;-63
2022/10/08 05:56:47;;;;;;;;;1.33;1.33;;;;;15.73;60.74;101748.59;5035461;28;45493;-62
2022/10/08 05:59:19;;;;;;;;;1.33;1.00;;;;;15.58;61.55;101752.09;5054651;28;45435;-62
2022/10/08 06:01:45;;;;;;;;;1.00;1.00;;;;;15.50;61.90;101742.44;5057970;28;45426;-62
2022/10/08 06:04:11;;;;;;;;;0.00;0.00;;;;;15.54;61.63;101753.00;5057745;28;45442;-63
2022/10/08 06:06:39;;;;;;;;;2.00;2.00;;;;;15.23;62.37;101724.03;5055454;28;45379;-62
2022/10/08 06:09:06;;;;;;;;;2.00;1.00;;;;;15.51;61.62;101773.25;5054036;28;45418;-62
2022/10/08 06:11:33;;;;;;;;;0.67;0.67;;;;;15.46;62.13;101770.59;5056819;28;46596;-62
2022/10/08 06:14:00;;;;;;;;;1.67;1.67;;;;;15.50;61.67;101768.84;5053968;28;45382;-61
2022/10/08 06:16:27;;;;;;;;;1.33;1.33;;;;;15.47;61.76;101773.25;5053738;28;45473;-62
2022/10/08 06:18:53;;;;;;;;;1.33;1.33;;;;;15.47;61.98;101782.91;5052496;28;45508;-61
2022/10/08 06:21:22;;;;;;;;;2.00;2.00;;;;;15.46;61.65;101776.75;5055064;28;46287;-62
2022/10/08 06:23:55;;;;;;;;;3.67;3.00;;;;;15.57;62.22;101781.16;5045620;28;45511;-61
2022/10/08 06:26:25;;;;;;;;;2.00;1.33;;;;;15.49;62.49;101786.44;5015279;28;45421;-63
2022/10/08 06:28:51;;;;;;;;;4.00;2.00;;;;;15.38;62.37;101780.31;5032884;28;45475;-62
2022/10/08 06:31:17;;;;;;;;;2.00;1.00;;;;;15.52;61.96;101796.09;5054785;28;45491;-62
2022/10/08 06:33:43;;;;;;;;;4.00;2.00;;;;;15.60;62.00;101803.13;5052988;28;45516;-62
2022/10/08 06:36:18;;;;;;;;;3.00;2.00;;;;;15.64;61.97;101806.66;5056575;28;45185;-62
2022/10/08 06:38:49;;;;;;;;;3.00;2.00;;;;;15.72;61.42;101799.63;5056119;28;45563;-62
2022/10/08 06:41:14;;;;;;;;;1.33;1.33;;;;;15.77;61.69;101803.13;5051147;28;46954;-62
2022/10/08 06:43:40;;;;;;;;;2.00;2.00;;;;;15.80;61.15;101804.88;5054483;28;45441;-61
2022/10/08 06:46:06;;;;;;;;;2.00;2.00;;;;;15.83;61.25;101797.84;5057354;28;46086;-63
2022/10/08 06:48:32;;;;;;;;;2.00;2.00;;;;;15.94;60.84;101812.78;5053622;28;45801;-62
2022/10/08 06:50:59;;;;;;;;;3.00;3.00;;;;;15.99;60.48;101797.78;5052728;28;46251;-61
2022/10/08 06:53:25;;;;;;;;;3.00;2.00;;;;;16.10;60.25;101817.13;5056878;28;45280;-63
2022/10/08 06:56:17;;;;;;;;;4.00;3.00;;;;;16.19;60.22;101819.75;5052606;28;45448;-62
2022/10/08 06:58:43;;;;;;;;;4.00;3.00;;;;;16.30;60.04;101824.97;5041608;28;45395;-64
2022/10/08 07:01:14;;;;;;;;;4.00;2.67;;;;;16.37;60.02;101821.41;5051571;28;45399;-62
2022/10/08 07:03:39;;;;;;;;;4.67;2.00;;;;;16.43;59.72;101829.31;5036445;28;45773;-62
2022/10/08 07:06:10;;;;;;;;;6.33;2.00;;;;;16.51;59.42;101824.00;5055988;28;45652;-63
2022/10/08 07:08:37;;;;;;;;;2.00;2.00;;;;;16.60;59.22;101831.00;5042884;28;46049;-63
2022/10/08 07:11:10;;;;;;;;;5.00;2.00;;;;;16.69;59.18;101837.13;5041637;28;46036;-63
2022/10/08 07:13:37;;;;;;;;;2.33;2.00;;;;;16.72;58.72;101829.16;5046378;28;45469;-63
2022/10/08 07:16:11;;;;;;;;;2.67;2.33;;;;;16.85;58.81;101840.59;5044496;28;45465;-63
2022/10/08 07:18:40;;;;;;;;;3.00;2.00;;;;;16.93;58.48;101849.34;5029548;28;45698;-63
2022/10/08 07:21:10;;;;;;;;;2.00;1.00;;;;;16.99;58.24;101848.44;5047036;28;45348;-64
2022/10/08 07:23:37;;;;;;;;;4.00;1.00;;;;;17.04;57.87;101849.28;5047525;28;45416;-63
2022/10/08 07:26:04;;;;;;;;;2.00;1.00;;;;;17.14;57.96;101855.41;5055023;28;45694;-66
2022/10/08 07:28:33;;;;;;;;;1.33;1.33;;;;;17.13;57.97;101857.16;5038419;28;45601;-63
2022/10/08 07:31:07;;;;;;;;;1.00;1.00;;;;;17.19;58.03;101864.19;5053743;28;46787;-62
2022/10/08 07:33:33;;;;;;;;;1.33;1.33;;;;;17.21;57.80;101862.41;5056332;28;45323;-66
2022/10/08 07:36:10;;;;;;;;;2.67;1.33;;;;;17.29;57.62;101871.16;5038706;28;45326;-64
2022/10/08 07:38:37;;;;;;;;;2.67;1.67;;;;;17.36;57.50;101872.84;5055465;28;45528;-62
2022/10/08 07:41:02;;;;;;;;;2.00;2.00;;;;;17.38;57.15;101870.22;5058438;28;45641;-63
2022/10/08 07:43:28;;;;;;;;;2.00;2.00;;;;;17.43;56.92;101860.44;5037482;28;45769;-63
2022/10/08 07:45:54;;;;;;;;;7.33;2.00;;;;;17.49;56.72;101865.72;5050985;28;45722;-63
2022/10/08 07:48:19;;;;;;;;;4.33;2.00;;;;;17.54;56.53;101870.97;5051794;28;45572;-61
2022/10/08 07:50:45;;;;;;;;;1.33;1.00;;;;;17.71;56.77;101892.88;5054033;28;46209;-62
2022/10/08 07:53:11;;;;;;;;;1.33;1.00;;;;;17.76;56.40;101888.41;5048486;28;45451;-62
2022/10/08 07:55:37;;;;;;;;;2.00;2.00;;;;;17.77;56.15;101890.19;5028314;28;45714;-64
2022/10/08 07:58:03;;;;;;;;;2.00;2.00;;;;;17.89;56.10;101904.22;5037373;28;45576;-63
2022/10/08 08:00:29;;;;;;;;;2.00;2.00;;;;;17.95;56.23;101899.75;5056356;28;45526;-63
2022/10/08 08:02:57;;;;;;;;;3.67;2.33;;;;;18.02;55.87;101903.22;5051590;28;45446;-63
2022/10/08 08:05:23;;;;;;;;;2.67;1.33;;;;;18.08;55.67;101916.41;5057569;28;45727;-63
2022/10/08 08:07:49;;;;;;;;;3.00;2.00;;;;;18.13;55.16;101911.94;5042812;28;45522;-63
2022/10/08 08:10:15;;;;;;;;;3.00;2.00;;;;;18.07;55.45;101903.16;5046659;28;46065;-63
2022/10/08 08:12:41;;;;;;;;;3.33;2.67;;;;;18.22;55.18;101922.44;5033230;28;45496;-63
2022/10/08 08:15:07;;;;;;;;;3.67;2.00;;;;;18.27;55.37;101908.25;5047741;28;45415;-65
2022/10/08 08:17:35;;;;;;;;;5.00;2.00;;;;;18.31;55.03;101909.97;5053909;28;45382;-62
2022/10/08 08:20:01;;;;;;;;;3.00;3.00;;;;;18.42;55.01;101922.22;5039000;28;45552;-63
2022/10/08 08:22:27;;;;;;;;;3.00;3.00;;;;;18.47;54.68;101923.94;5047283;28;45426;-64
2022/10/08 08:24:52;;;;;;;;;3.33;1.67;;;;;18.56;54.35;101931.78;5050450;28;45765;-63
2022/10/08 08:27:18;;;;;;;;;5.33;4.00;;;;;18.63;54.28;101931.69;5054029;28;45437;-62
2022/10/08 08:29:44;;;;;;;;;6.33;4.00;;;;;18.69;54.26;101933.38;5047816;28;46301;-62
2022/10/08 08:32:09;;;;;;;;;2.67;2.00;;;;;18.80;54.36;101938.59;5041217;28;45845;-59
2022/10/08 08:34:35;;;;;;;;;3.33;2.00;;;;;18.85;54.17;101937.63;5053041;28;45375;-60
2022/10/08 08:37:00;;;;;;;;;2.00;2.00;;;;;18.90;53.81;101936.69;5053470;28;45548;-62
2022/10/08 08:39:27;;;;;;;;;3.33;3.00;;;;;19.02;54.10;101939.19;5040913;28;45777;-59
2022/10/08 08:42:27;;;;;;;;;2.00;2.00;;;;;19.13;53.56;101952.31;5023576;28;45942;-61
2022/10/08 08:45:02;;;;;;;;;2.00;1.67;;;;;19.25;53.03;101952.13;5055023;28;45485;-61
2022/10/08 08:47:48;;;;;;;;;3.67;2.00;;;;;19.36;53.48;101954.59;5054818;28;45563;-61
2022/10/08 08:50:27;;;;;;;;;2.00;2.00;;;;;19.49;53.56;101957.06;5054255;28;46183;-60
2022/10/08 08:52:54;;;;;;;;;6.33;3.00;;;;;19.60;52.67;101964.88;5054979;28;45732;-59
2022/10/08 08:55:32;;;;;;;;;1.33;1.33;;;;;19.66;52.28;101955.91;5055286;28;45488;-60
2022/10/08 08:58:19;;;;;;;;;3.00;2.00;;;;;19.83;51.94;101967.16;5057953;28;45446;-60
2022/10/08 09:00:53;;;;;;;;;2.00;2.00;;;;;19.98;51.41;101966.06;5054058;28;45973;-59
2022/10/08 09:03:29;;;;;;;;;1.33;1.33;;;;;20.06;51.18;101956.13;5056095;28;45426;-59
2022/10/08 09:06:00;;;;;;;;;4.33;2.00;;;;;20.19;50.32;101970.06;5058892;28;45401;-61
2022/10/08 09:08:33;;;;;;;;;3.00;1.67;;;;;20.24;50.25;101964.66;5058870;28;45312;-62
2022/10/08 09:11:06;;;;;;;;;3.00;1.33;;;;;20.39;49.95;101974.16;5056471;28;46002;-60
2022/10/08 09:13:57;;;;;;;;;3.00;3.00;;;;;20.49;49.33;101973.94;5055353;28;45384;-59
2022/10/08 09:16:26;;;;;;;;;1.67;1.67;;;;;20.59;49.20;101981.78;5052455;28;45431;-61
2022/10/08 09:18:52;;;;;;;;;1.00;1.00;;;;;20.67;48.72;101980.72;5051493;28;45497;-60
2022/10/08 09:21:19;;;;;;;;;2.00;1.00;;;;;20.79;48.29;101981.41;5056080;28;46369;-61
2022/10/08 09:23:45;;;;;;;;;1.33;1.33;;;;;20.90;48.13;101974.03;5058277;28;45455;-61
2022/10/08 09:26:16;;;;;;;;;2.00;2.00;;;;;21.02;47.65;101972.91;5055052;28;45398;-60
2022/10/08 09:28:48;;;;;;;;;3.00;1.33;;;;;21.07;47.57;101966.56;5054155;28;45696;-60
2022/10/08 09:31:20;;;;;;;;;2.00;2.00;;;;;21.24;47.20;101968.84;5054038;28;45447;-62
2022/10/08 09:33:53;;;;;;;;;2.67;2.00;;;;;21.39;46.49;101986.28;5054079;28;45349;-60
2022/10/08 09:36:34;;;;;;;;;4.33;2.00;;;;;21.51;45.91;101982.47;5057140;28;45507;-61
2022/10/08 09:39:02;;;;;;;;;2.00;2.00;;;;;21.65;45.43;101988.34;5054507;28;45788;-62
2022/10/08 09:41:29;;;;;;;;;3.67;3.00;;;;;21.76;44.08;101988.97;5056173;28;45466;-61
2022/10/08 09:44:20;;;;;;;;;4.67;3.00;;;;;21.90;43.48;101993.97;5057885;28;45273;-61
2022/10/08 09:46:47;;;;;;;;;2.00;2.00;;;;;22.18;43.57;101987.91;5057876;28;45439;-61
2022/10/08 09:49:29;;;;;;;;;2.00;2.00;;;;;22.49;43.12;101989.75;5056248;28;45441;-60
2022/10/08 09:51:58;;;;;;;;;6.33;1.33;;;;;22.88;41.83;101992.22;5053915;28;46608;-61
2022/10/08 09:54:28;;;;;;;;;1.00;1.00;;;;;23.05;40.98;101989.94;5039809;28;45343;-60
2022/10/08 09:56:57;;;;;;;;;4.33;2.00;;;;;23.26;41.01;101986.63;5057594;28;45485;-60
2022/10/08 09:59:26;;;;;;;;;3.33;2.00;;;;;23.60;39.99;101987.34;5052467;28;45618;-62
2022/10/08 10:01:52;;;;;;;;;3.00;2.00;;;;;23.99;39.50;101976.25;5054630;28;46215;-61
2022/10/08 10:04:37;;;;;;;;;3.33;2.00;;;;;24.88;37.27;101989.13;5058092;28;45430;-59
2022/10/08 10:07:03;;;;;;;;;4.00;1.00;;;;;24.81;36.50;101996.53;5053940;28;45582;-60
2022/10/08 10:09:32;;;;;;;;;0.25;0.25;;;;;27.66;33.04;101988.63;5054146;28;45377;-62
2022/10/08 10:12:23;;;;;;;;;2.75;2.00;;;;;30.26;29.69;101976.16;5053444;28;45422;-61
2022/10/08 10:15:02;;;;;;;;;1.25;1.00;;;;;28.51;30.90;101976.22;5053286;28;45611;-62
2022/10/08 10:17:55;;;;;;;;;3.50;2.00;;;;;26.82;32.04;101987.31;5034984;28;45501;-64
2022/10/08 10:20:29;;;;;;;;;2.00;1.50;;;;;27.78;30.46;101973.66;5055864;28;45470;-63
2022/10/08 10:23:00;;;;;;;;;3.00;1.00;;;;;27.27;31.33;101992.34;5049183;28;45451;-62
2022/10/08 10:25:32;;;;;;;;;1.25;1.25;;;;;30.19;28.16;101983.72;5044705;28;45425;-62
2022/10/08 10:28:13;;;;;;;;;2.75;1.00;;;;;32.22;25.44;101990.38;5055853;28;45503;-63
2022/10/08 10:30:54;;;;;;;;;3.00;1.00;;;;;31.69;26.33;101978.66;5052749;28;45343;-62
2022/10/08 10:33:24;;;;;;;;;1.00;0.75;;;;;29.65;27.82;101962.59;5052103;28;46427;-61
2022/10/08 10:35:56;;;;;;;;;2.20;1.80;;;;;28.11;30.22;101981.00;5055321;28;45473;-61
2022/10/08 10:38:26;;;;;;;;;1.60;1.20;;;;;29.43;28.39;101984.59;5054917;28;45292;-63
2022/10/08 10:41:24;;;;;;;;;2.00;1.00;;;;;32.51;25.21;101987.50;5049305;28;45430;-61
2022/10/08 10:43:53;;;;;;;;;0.75;0.75;;;;;34.71;23.06;101979.06;5025766;28;46370;-60
2022/10/08 10:46:35;;;;;;;;;1.40;1.00;;;;;36.33;21.23;101982.72;5044060;28;45539;-61
2022/10/08 10:49:01;;;;;;;;;1.00;1.00;;;;;37.51;19.78;101980.25;5057270;28;45379;-63
2022/10/08 10:51:39;;;;;;;;;0.20;0.20;;;;;38.25;19.10;101978.75;5053789;28;45286;-61
2022/10/08 10:54:28;;;;;;;;;3.00;1.00;;;;;39.07;18.44;101977.16;5048521;28;45494;-62
2022/10/08 10:57:02;;;;;;;;;1.40;1.40;;;;;39.97;17.77;101978.88;5054776;28;45339;-61
2022/10/08 10:59:47;;;;;;;;;2.80;0.80;;;;;38.91;18.48;101977.78;5053815;28;45565;-62
2022/10/08 11:02:41;;;;;;;;;1.40;1.40;;;;;36.43;19.73;101984.50;5047532;28;45414;-62
2022/10/08 11:05:21;;;;;;;;;5.00;2.00;;;;;33.86;22.25;101982.97;5036387;28;45933;-61
2022/10/08 11:08:05;;;;;;;;;1.80;1.20;;;;;32.07;23.73;101986.91;5036924;28;45638;-60
2022/10/08 11:10:43;;;;;;;;;4.60;2.20;;;;;31.01;24.71;101991.25;5042251;28;45296;-63
2022/10/08 11:13:23;;;;;;;;;2.00;2.00;;;;;34.25;22.26;101982.72;5035289;28;45521;-64
2022/10/08 11:16:08;;;;;;;;;0.60;0.60;;;;;37.06;19.28;101972.56;5051979;28;46213;-62
2022/10/08 11:18:51;;;;;;;;;2.60;1.20;;;;;37.90;18.94;101967.44;5052607;28;45369;-61
2022/10/08 11:21:34;;;;;;;;;0.60;0.60;;;;;34.85;20.49;101978.78;5051948;28;45672;-61
2022/10/08 11:23:59;;;;;;;;;1.00;1.00;;;;;36.23;19.51;101982.66;5047296;28;45576;-63
2022/10/08 11:26:38;;;;;;;;;2.00;1.00;;;;;34.72;20.50;101976.22;5033279;28;45466;-64
2022/10/08 11:29:22;;;;;;;;;1.00;1.00;;;;;34.95;20.44;101982.47;5051139;28;45440;-62
2022/10/08 11:31:50;;;;;;;;;2.00;2.00;;;;;33.97;21.01;101973.97;5049631;28;45448;-61
2022/10/08 11:34:36;;;;;;;;;5.00;4.80;;;;;32.57;22.59;101981.63;5031487;28;45554;-64
2022/10/08 11:37:27;;;;;;;;;2.20;2.20;;;;;30.64;24.30;101981.88;5051901;28;45535;-61
2022/10/08 11:39:58;;;;;;;;;1.80;1.80;;;;;32.04;23.48;101984.41;5030401;28;45601;-62
2022/10/08 11:42:33;;;;;;;;;7.40;7.40;;;;;34.83;20.67;101981.66;5039046;28;45690;-62
2022/10/08 11:45:38;;;;;;;;;12.00;10.00;;;;;36.46;19.38;101973.31;5051190;28;45648;-61